sensor_id;sensor_type;location;lat;lon;timestamp;pressure;altitude;pressure_sealevel;temperature;humidity
72086;BME280;64750;52.134;5.424;2023-03-18T00:01:39;100926.81;;;12.56;72.72
72086;BME280;64750;52.134;5.424;2023-03-18T00:04:07;100935.69;;;12.55;72.85
72086;BME280;64750;52.134;5.424;2023-03-18T00:06:35;100933.88;;;12.56;73.09
72086;BME280;64750;52.134;5.424;2023-03-18T00:09:04;100938.22;;;12.57;72.98
72086;BME280;64750;52.134;5.424;2023-03-18T00:11:30;100944.22;;;12.59;72.73
72086;BME280;64750;52.134;5.424;2023-03-18T00:13:57;100941.59;;;12.59;72.67
72086;BME280;64750;52.134;5.424;2023-03-18T00:16:24;100950.44;;;12.58;72.59
72086;BME280;64750;52.134;5.424;2023-03-18T00:18:52;100955.91;;;12.55;72.93
72086;BME280;64750;52.134;5.424;2023-03-18T00:21:19;100956.34;;;12.49;73.04
72086;BME280;64750;52.134;5.424;2023-03-18T00:23:45;100955.47;;;12.48;73.03
72086;BME280;64750;52.134;5.424;2023-03-18T00:26:14;100956.63;;;12.44;73.08
72086;BME280;64750;52.134;5.424;2023-03-18T00:28:41;100963.91;;;12.40;73.26
72086;BME280;64750;52.134;5.424;2023-03-18T00:31:09;100961.47;;;12.37;73.19
72086;BME280;64750;52.134;5.424;2023-03-18T00:33:37;100955.84;;;12.29;73.43
72086;BME280;64750;52.134;5.424;2023-03-18T00:36:07;100958.69;;;12.26;73.48
72086;BME280;64750;52.134;5.424;2023-03-18T00:38:35;100950.97;;;12.23;73.53
72086;BME280;64750;52.134;5.424;2023-03-18T00:41:02;100960.78;;;12.21;73.74
72086;BME280;64750;52.134;5.424;2023-03-18T00:43:39;100966.22;;;12.18;73.86
72086;BME280;64750;52.134;5.424;2023-03-18T00:46:16;100969.91;;;12.15;73.88
72086;BME280;64750;52.134;5.424;2023-03-18T00:48:44;100968.16;;;12.16;74.03
72086;BME280;64750;52.134;5.424;2023-03-18T00:51:11;100963.81;;;12.14;74.09
72086;BME280;64750;52.134;5.424;2023-03-18T00:53:44;100958.00;;;12.09;74.07
72086;BME280;64750;52.134;5.424;2023-03-18T00:56:12;100959.88;;;12.07;74.33
72086;BME280;64750;52.134;5.424;2023-03-18T00:58:39;100955.34;;;12.09;74.29
72086;BME280;64750;52.134;5.424;2023-03-18T01:01:07;100956.13;;;12.11;74.21
72086;BME280;64750;52.134;5.424;2023-03-18T01:03:34;100956.75;;;12.15;74.19
72086;BME280;64750;52.134;5.424;2023-03-18T01:06:01;100954.97;;;12.16;74.26
72086;BME280;64750;52.134;5.424;2023-03-18T01:08:30;100953.06;;;12.18;74.20
72086;BME280;64750;52.134;5.424;2023-03-18T01:10:57;100952.44;;;12.14;74.33
72086;BME280;64750;52.134;5.424;2023-03-18T01:13:23;100957.06;;;12.10;74.32
72086;BME280;64750;52.134;5.424;2023-03-18T01:15:51;100953.88;;;12.05;74.64
72086;BME280;64750;52.134;5.424;2023-03-18T01:18:17;100958.28;;;12.05;74.90
72086;BME280;64750;52.134;5.424;2023-03-18T01:20:44;100957.44;;;12.04;74.83
72086;BME280;64750;52.134;5.424;2023-03-18T01:23:10;100957.44;;;12.04;74.75
72086;BME280;64750;52.134;5.424;2023-03-18T01:25:38;100961.03;;;12.03;74.98
72086;BME280;64750;52.134;5.424;2023-03-18T01:28:05;100961.88;;;12.04;74.89
72086;BME280;64750;52.134;5.424;2023-03-18T01:30:32;100963.56;;;12.05;75.02
72086;BME280;64750;52.134;5.424;2023-03-18T01:33:02;100959.16;;;12.05;74.93
72086;BME280;64750;52.134;5.424;2023-03-18T01:35:31;100960.91;;;12.05;74.72
72086;BME280;64750;52.134;5.424;2023-03-18T01:37:58;100964.31;;;12.07;74.92
72086;BME280;64750;52.134;5.424;2023-03-18T01:40:25;100958.28;;;12.05;74.98
72086;BME280;64750;52.134;5.424;2023-03-18T01:43:26;100953.31;;;12.00;75.14
72086;BME280;64750;52.134;5.424;2023-03-18T01:45:55;100960.38;;;12.00;75.30
72086;BME280;64750;52.134;5.424;2023-03-18T01:48:25;100965.63;;;12.00;75.17
72086;BME280;64750;52.134;5.424;2023-03-18T01:50:55;100957.84;;;11.98;75.15
72086;BME280;64750;52.134;5.424;2023-03-18T01:53:28;100959.63;;;11.97;75.50
72086;BME280;64750;52.134;5.424;2023-03-18T01:55:57;100959.63;;;11.97;75.47
72086;BME280;64750;52.134;5.424;2023-03-18T01:58:30;100958.88;;;11.95;75.68
72086;BME280;64750;52.134;5.424;2023-03-18T02:01:06;100962.41;;;11.94;75.59
72086;BME280;64750;52.134;5.424;2023-03-18T02:03:34;100967.78;;;11.93;75.84
72086;BME280;64750;52.134;5.424;2023-03-18T02:06:02;100958.50;;;11.87;75.95
72086;BME280;64750;52.134;5.424;2023-03-18T02:08:28;100958.41;;;11.89;75.86
72086;BME280;64750;52.134;5.424;2023-03-18T02:10:55;100963.47;;;11.92;75.71
72086;BME280;64750;52.134;5.424;2023-03-18T02:13:22;100959.88;;;11.93;75.89
72086;BME280;64750;52.134;5.424;2023-03-18T02:15:52;100958.19;;;11.92;75.84
72086;BME280;64750;52.134;5.424;2023-03-18T02:18:23;100963.66;;;11.89;75.98
72086;BME280;64750;52.134;5.424;2023-03-18T02:24:10;100972.72;;;11.85;76.21
72086;BME280;64750;52.134;5.424;2023-03-18T02:26:59;100978.91;;;11.84;76.23
72086;BME280;64750;52.134;5.424;2023-03-18T02:29:28;100973.44;;;11.87;76.33
72086;BME280;64750;52.134;5.424;2023-03-18T02:31:59;100978.72;;;11.87;76.33
72086;BME280;64750;52.134;5.424;2023-03-18T02:34:27;100973.56;;;11.85;76.41
72086;BME280;64750;52.134;5.424;2023-03-18T02:36:54;100973.44;;;11.87;76.29
72086;BME280;64750;52.134;5.424;2023-03-18T02:39:22;100971.69;;;11.87;76.15
72086;BME280;64750;52.134;5.424;2023-03-18T02:41:49;100977.78;;;11.88;76.21
72086;BME280;64750;52.134;5.424;2023-03-18T02:44:17;100978.63;;;11.88;76.20
72086;BME280;64750;52.134;5.424;2023-03-18T02:47:00;100978.72;;;11.87;76.23
72086;BME280;64750;52.134;5.424;2023-03-18T02:49:29;100979.66;;;11.86;76.14
72086;BME280;64750;52.134;5.424;2023-03-18T02:51:56;100986.81;;;11.84;76.40
72086;BME280;64750;52.134;5.424;2023-03-18T02:54:25;100980.69;;;11.83;76.23
72086;BME280;64750;52.134;5.424;2023-03-18T02:56:53;100981.56;;;11.84;76.31
72086;BME280;64750;52.134;5.424;2023-03-18T02:59:21;100980.63;;;11.85;76.41
72086;BME280;64750;52.134;5.424;2023-03-18T03:01:50;100980.69;;;11.83;76.58
72086;BME280;64750;52.134;5.424;2023-03-18T03:04:19;100985.13;;;11.82;76.64
72086;BME280;64750;52.134;5.424;2023-03-18T03:06:45;100979.84;;;11.82;76.45
72086;BME280;64750;52.134;5.424;2023-03-18T03:09:15;100976.28;;;11.84;76.27
72086;BME280;64750;52.134;5.424;2023-03-18T03:11:43;100983.25;;;11.85;76.20
72086;BME280;64750;52.134;5.424;2023-03-18T03:14:11;100984.91;;;11.86;76.28
72086;BME280;64750;52.134;5.424;2023-03-18T03:16:38;100992.09;;;11.84;76.42
72086;BME280;64750;52.134;5.424;2023-03-18T03:19:05;100989.63;;;11.80;76.34
72086;BME280;64750;52.134;5.424;2023-03-18T03:21:32;100982.69;;;11.79;76.45
72086;BME280;64750;52.134;5.424;2023-03-18T03:24:05;100987.97;;;11.79;76.47
72086;BME280;64750;52.134;5.424;2023-03-18T03:26:32;100995.88;;;11.79;76.50
72086;BME280;64750;52.134;5.424;2023-03-18T03:28:59;100997.75;;;11.77;76.57
72086;BME280;64750;52.134;5.424;2023-03-18T03:31:26;101004.03;;;11.75;76.73
72086;BME280;64750;52.134;5.424;2023-03-18T03:33:53;101004.88;;;11.75;76.72
72086;BME280;64750;52.134;5.424;2023-03-18T03:36:19;101004.88;;;11.75;76.76
72086;BME280;64750;52.134;5.424;2023-03-18T03:38:46;101002.25;;;11.75;76.85
72086;BME280;64750;52.134;5.424;2023-03-18T03:41:13;101003.94;;;11.76;76.72
72086;BME280;64750;52.134;5.424;2023-03-18T03:43:42;101012.78;;;11.75;76.57
72086;BME280;64750;52.134;5.424;2023-03-18T03:46:09;101025.09;;;11.75;76.79
72086;BME280;64750;52.134;5.424;2023-03-18T03:48:37;101008.47;;;11.74;76.67
72086;BME280;64750;52.134;5.424;2023-03-18T03:51:04;101015.50;;;11.74;76.60
72086;BME280;64750;52.134;5.424;2023-03-18T03:53:31;101022.56;;;11.73;76.72
72086;BME280;64750;52.134;5.424;2023-03-18T03:55:59;101012.03;;;11.73;76.58
72086;BME280;64750;52.134;5.424;2023-03-18T03:58:25;101019.00;;;11.74;76.76
72086;BME280;64750;52.134;5.424;2023-03-18T04:00:52;101019.00;;;11.74;76.48
72086;BME280;64750;52.134;5.424;2023-03-18T04:03:18;101020.88;;;11.72;76.62
72086;BME280;64750;52.134;5.424;2023-03-18T04:05:45;101021.72;;;11.73;76.57
72086;BME280;64750;52.134;5.424;2023-03-18T04:08:11;101021.72;;;11.73;76.48
72086;BME280;64750;52.134;5.424;2023-03-18T04:10:38;101026.91;;;11.74;76.60
72086;BME280;64750;52.134;5.424;2023-03-18T04:13:05;101024.34;;;11.73;76.58
72086;BME280;64750;52.134;5.424;2023-03-18T04:15:32;101024.44;;;11.71;76.53
72086;BME280;64750;52.134;5.424;2023-03-18T04:17:58;101027.94;;;11.72;76.64
72086;BME280;64750;52.134;5.424;2023-03-18T04:20:30;101022.75;;;11.70;76.66
72086;BME280;64750;52.134;5.424;2023-03-18T04:22:57;101025.38;;;11.70;76.68
72086;BME280;64750;52.134;5.424;2023-03-18T04:25:23;101025.47;;;11.69;76.85
72086;BME280;64750;52.134;5.424;2023-03-18T04:27:50;101028.00;;;11.70;76.93
72086;BME280;64750;52.134;5.424;2023-03-18T04:30:18;101034.16;;;11.71;77.17
72086;BME280;64750;52.134;5.424;2023-03-18T04:32:45;101028.00;;;11.70;77.20
72086;BME280;64750;52.134;5.424;2023-03-18T04:35:12;101032.66;;;11.67;77.33
72086;BME280;64750;52.134;5.424;2023-03-18T04:37:38;101035.28;;;11.67;77.52
72086;BME280;64750;52.134;5.424;2023-03-18T04:40:05;101022.94;;;11.67;77.62
72086;BME280;64750;52.134;5.424;2023-03-18T04:42:32;101023.78;;;11.68;77.66
72086;BME280;64750;52.134;5.424;2023-03-18T04:44:59;101023.78;;;11.68;77.86
72086;BME280;64750;52.134;5.424;2023-03-18T04:47:25;101024.66;;;11.68;77.95
72086;BME280;64750;52.134;5.424;2023-03-18T04:49:51;101019.38;;;11.68;77.88
72086;BME280;64750;52.134;5.424;2023-03-18T04:52:18;101026.34;;;11.69;78.00
72086;BME280;64750;52.134;5.424;2023-03-18T04:54:45;101019.38;;;11.68;78.08
72086;BME280;64750;52.134;5.424;2023-03-18T04:57:12;101029.91;;;11.68;78.38
72086;BME280;64750;52.134;5.424;2023-03-18T04:59:38;101034.31;;;11.68;78.40
72086;BME280;64750;52.134;5.424;2023-03-18T05:02:04;101033.47;;;11.67;78.64
72086;BME280;64750;52.134;5.424;2023-03-18T05:04:31;101036.22;;;11.65;78.86
72086;BME280;64750;52.134;5.424;2023-03-18T05:06:57;101038.94;;;11.64;78.90
72086;BME280;64750;52.134;5.424;2023-03-18T05:09:24;101039.78;;;11.64;79.02
72086;BME280;64750;52.134;5.424;2023-03-18T05:11:50;101044.22;;;11.64;79.03
72086;BME280;64750;52.134;5.424;2023-03-18T05:14:16;101042.50;;;11.63;79.03
72086;BME280;64750;52.134;5.424;2023-03-18T05:16:43;101047.00;;;11.61;79.26
72086;BME280;64750;52.134;5.424;2023-03-18T05:19:10;101046.28;;;11.59;79.30
72086;BME280;64750;52.134;5.424;2023-03-18T05:21:37;101053.50;;;11.55;79.61
72086;BME280;64750;52.134;5.424;2023-03-18T05:24:04;101050.97;;;11.54;79.76
72086;BME280;64750;52.134;5.424;2023-03-18T05:26:30;101061.41;;;11.55;79.89
72086;BME280;64750;52.134;5.424;2023-03-18T05:28:56;101064.97;;;11.54;79.85
72086;BME280;64750;52.134;5.424;2023-03-18T05:31:24;101065.81;;;11.55;79.72
72086;BME280;64750;52.134;5.424;2023-03-18T05:33:50;101069.41;;;11.54;79.85
72086;BME280;64750;52.134;5.424;2023-03-18T05:36:17;101071.47;;;11.48;80.19
72086;BME280;64750;52.134;5.424;2023-03-18T05:38:44;101071.47;;;11.48;80.32
72086;BME280;64750;52.134;5.424;2023-03-18T05:41:10;101075.03;;;11.47;80.54
72086;BME280;64750;52.134;5.424;2023-03-18T05:43:37;101065.44;;;11.46;80.60
72086;BME280;64750;52.134;5.424;2023-03-18T05:46:03;101073.34;;;11.46;80.68
72086;BME280;64750;52.134;5.424;2023-03-18T05:48:30;101080.22;;;11.49;80.55
72086;BME280;64750;52.134;5.424;2023-03-18T05:50:57;101081.03;;;11.49;80.51
72086;BME280;64750;52.134;5.424;2023-03-18T05:53:24;101080.09;;;11.51;80.81
72086;BME280;64750;52.134;5.424;2023-03-18T05:55:50;101083.59;;;11.51;80.64
72086;BME280;64750;52.134;5.424;2023-03-18T05:58:16;101082.84;;;11.49;80.67
72086;BME280;64750;52.134;5.424;2023-03-18T06:00:43;101081.13;;;11.48;80.93
72086;BME280;64750;52.134;5.424;2023-03-18T06:03:10;101079.38;;;11.48;80.85
72086;BME280;64750;52.134;5.424;2023-03-18T06:05:37;101091.56;;;11.49;81.01
72086;BME280;64750;52.134;5.424;2023-03-18T06:08:03;101092.53;;;11.48;80.96
72086;BME280;64750;52.134;5.424;2023-03-18T06:10:30;101093.38;;;11.49;80.90
72086;BME280;64750;52.134;5.424;2023-03-18T06:12:57;101097.69;;;11.50;80.95
72086;BME280;64750;52.134;5.424;2023-03-18T06:15:23;101100.44;;;11.48;81.08
72086;BME280;64750;52.134;5.424;2023-03-18T06:17:51;101103.06;;;11.48;81.15
72086;BME280;64750;52.134;5.424;2023-03-18T06:20:18;101103.91;;;11.49;81.20
72086;BME280;64750;52.134;5.424;2023-03-18T06:22:45;101102.97;;;11.50;80.98
72086;BME280;64750;52.134;5.424;2023-03-18T06:25:20;101103.78;;;11.51;81.22
72086;BME280;64750;52.134;5.424;2023-03-18T06:27:47;101095.91;;;11.51;81.21
72086;BME280;64750;52.134;5.424;2023-03-18T06:30:14;101110.00;;;11.49;81.37
72086;BME280;64750;52.134;5.424;2023-03-18T06:32:40;101115.44;;;11.46;81.42
72086;BME280;64750;52.134;5.424;2023-03-18T06:35:08;101121.75;;;11.44;81.49
72086;BME280;64750;52.134;5.424;2023-03-18T06:37:36;101123.34;;;11.46;81.37
72086;BME280;64750;52.134;5.424;2023-03-18T06:40:04;101123.34;;;11.46;81.44
72086;BME280;64750;52.134;5.424;2023-03-18T06:42:31;101138.22;;;11.47;81.44
72086;BME280;64750;52.134;5.424;2023-03-18T06:44:58;101131.16;;;11.48;81.42
72086;BME280;64750;52.134;5.424;2023-03-18T06:47:25;101138.22;;;11.47;81.52
72086;BME280;64750;52.134;5.424;2023-03-18T06:49:51;101135.56;;;11.47;81.58
72086;BME280;64750;52.134;5.424;2023-03-18T06:52:18;101129.28;;;11.50;81.43
72086;BME280;64750;52.134;5.424;2023-03-18T06:54:44;101131.81;;;11.52;81.54
72086;BME280;64750;52.134;5.424;2023-03-18T06:57:11;101139.72;;;11.52;81.46
72086;BME280;64750;52.134;5.424;2023-03-18T06:59:37;101134.44;;;11.52;81.50
72086;BME280;64750;52.134;5.424;2023-03-18T07:02:04;101136.16;;;11.53;81.77
72086;BME280;64750;52.134;5.424;2023-03-18T07:04:33;101134.44;;;11.52;81.98
72086;BME280;64750;52.134;5.424;2023-03-18T07:07:00;101148.44;;;11.52;82.05
72086;BME280;64750;52.134;5.424;2023-03-18T07:09:27;101151.06;;;11.52;82.26
72086;BME280;64750;52.134;5.424;2023-03-18T07:11:53;101144.22;;;11.49;82.47
72086;BME280;64750;52.134;5.424;2023-03-18T07:14:20;101155.69;;;11.48;82.68
72086;BME280;64750;52.134;5.424;2023-03-18T07:16:46;101152.41;;;11.45;82.90
72086;BME280;64750;52.134;5.424;2023-03-18T07:19:13;101155.97;;;11.44;83.17
72086;BME280;64750;52.134;5.424;2023-03-18T07:21:40;101169.38;;;11.39;83.36
72086;BME280;64750;52.134;5.424;2023-03-18T07:24:08;101169.47;;;11.38;83.56
72086;BME280;64750;52.134;5.424;2023-03-18T07:26:36;101171.19;;;11.39;83.57
72086;BME280;64750;52.134;5.424;2023-03-18T07:29:03;101165.81;;;11.40;83.57
72086;BME280;64750;52.134;5.424;2023-03-18T07:31:30;101178.13;;;11.40;83.64
72086;BME280;64750;52.134;5.424;2023-03-18T07:33:57;101173.63;;;11.42;83.66
72086;BME280;64750;52.134;5.424;2023-03-18T07:36:24;101181.50;;;11.42;83.62
72086;BME280;64750;52.134;5.424;2023-03-18T07:38:50;101182.28;;;11.44;83.69
72086;BME280;64750;52.134;5.424;2023-03-18T07:41:17;101182.19;;;11.45;83.81
72086;BME280;64750;52.134;5.424;2023-03-18T07:43:43;101186.69;;;11.43;83.96
72086;BME280;64750;52.134;5.424;2023-03-18T07:46:10;101184.72;;;11.47;84.04
72086;BME280;64750;52.134;5.424;2023-03-18T07:48:36;101190.84;;;11.47;84.22
72086;BME280;64750;52.134;5.424;2023-03-18T07:51:03;101195.19;;;11.48;84.19
72086;BME280;64750;52.134;5.424;2023-03-18T07:53:29;101193.38;;;11.49;84.18
72086;BME280;64750;52.134;5.424;2023-03-18T07:55:56;101190.84;;;11.47;84.35
72086;BME280;64750;52.134;5.424;2023-03-18T07:58:22;101192.38;;;11.52;84.25
72086;BME280;64750;52.134;5.424;2023-03-18T08:00:51;101195.75;;;11.54;84.25
72086;BME280;64750;52.134;5.424;2023-03-18T08:03:17;101196.69;;;11.53;84.45
72086;BME280;64750;52.134;5.424;2023-03-18T08:05:44;101188.78;;;11.53;84.40
72086;BME280;64750;52.134;5.424;2023-03-18T08:08:10;101196.59;;;11.54;84.28
72086;BME280;64750;52.134;5.424;2023-03-18T08:10:37;101194.06;;;11.53;84.46
72086;BME280;64750;52.134;5.424;2023-03-18T08:13:04;101188.50;;;11.57;84.55
72086;BME280;64750;52.134;5.424;2023-03-18T08:15:30;101185.72;;;11.60;84.20
72086;BME280;64750;52.134;5.424;2023-03-18T08:17:57;101187.31;;;11.63;84.07
72086;BME280;64750;52.134;5.424;2023-03-18T08:20:23;101189.75;;;11.66;84.07
72086;BME280;64750;52.134;5.424;2023-03-18T08:22:50;101188.56;;;11.72;83.72
72086;BME280;64750;52.134;5.424;2023-03-18T08:25:16;101190.91;;;11.76;83.80
72086;BME280;64750;52.134;5.424;2023-03-18T08:27:43;101196.94;;;11.78;83.55
72086;BME280;64750;52.134;5.424;2023-03-18T08:30:10;101194.09;;;11.81;83.44
72086;BME280;64750;52.134;5.424;2023-03-18T08:32:36;101189.50;;;11.85;83.38
72086;BME280;64750;52.134;5.424;2023-03-18T08:35:04;101187.34;;;11.92;83.28
72086;BME280;64750;52.134;5.424;2023-03-18T08:37:30;101184.53;;;11.95;83.05
72086;BME280;64750;52.134;5.424;2023-03-18T08:39:57;101179.97;;;11.98;82.86
72086;BME280;64750;52.134;5.424;2023-03-18T08:42:23;101181.56;;;12.01;82.44
72086;BME280;64750;52.134;5.424;2023-03-18T08:44:50;101188.44;;;12.04;82.52
72086;BME280;64750;52.134;5.424;2023-03-18T08:47:16;101185.63;;;12.07;82.44
72086;BME280;64750;52.134;5.424;2023-03-18T08:49:43;101186.44;;;12.07;81.91
72086;BME280;64750;52.134;5.424;2023-03-18T08:52:09;101184.69;;;12.08;81.86
72086;BME280;64750;52.134;5.424;2023-03-18T08:54:37;101187.22;;;12.09;81.58
72086;BME280;64750;52.134;5.424;2023-03-18T08:57:03;101184.47;;;12.11;81.51
72086;BME280;64750;52.134;5.424;2023-03-18T08:59:30;101194.19;;;12.10;81.49
72086;BME280;64750;52.134;5.424;2023-03-18T09:01:56;101193.25;;;12.11;81.71
72086;BME280;64750;52.134;5.424;2023-03-18T09:04:23;101197.28;;;12.17;82.03
72086;BME280;64750;52.134;5.424;2023-03-18T09:06:51;101186.47;;;12.22;82.00
72086;BME280;64750;52.134;5.424;2023-03-18T09:09:17;101189.66;;;12.27;81.82
72086;BME280;64750;52.134;5.424;2023-03-18T09:11:43;101193.81;;;12.31;82.13
72086;BME280;64750;52.134;5.424;2023-03-18T09:14:11;101191.94;;;12.33;81.78
72086;BME280;64750;52.134;5.424;2023-03-18T09:16:39;101197.38;;;12.30;81.68
72086;BME280;64750;52.134;5.424;2023-03-18T09:19:06;101193.03;;;12.29;81.57
72086;BME280;64750;52.134;5.424;2023-03-18T09:21:32;101198.41;;;12.27;81.35
72086;BME280;64750;52.134;5.424;2023-03-18T09:23:58;101201.81;;;12.29;81.50
72086;BME280;64750;52.134;5.424;2023-03-18T09:26:25;101200.66;;;12.34;81.87
72086;BME280;64750;52.134;5.424;2023-03-18T09:28:51;101208.47;;;12.35;81.70
72086;BME280;64750;52.134;5.424;2023-03-18T09:31:18;101207.44;;;12.38;81.39
72086;BME280;64750;52.134;5.424;2023-03-18T09:33:44;101211.88;;;12.37;81.53
72086;BME280;64750;52.134;5.424;2023-03-18T09:36:12;101222.41;;;12.37;81.56
72086;BME280;64750;52.134;5.424;2023-03-18T09:38:39;101224.13;;;12.38;81.63
72086;BME280;64750;52.134;5.424;2023-03-18T09:44:24;101224.69;;;12.43;81.40
72086;BME280;64750;52.134;5.424;2023-03-18T09:57:21;101223.53;;;12.47;81.18
72086;BME280;64750;52.134;5.424;2023-03-18T10:02:56;101233.72;;;12.54;81.06
72086;BME280;64750;52.134;5.424;2023-03-18T10:05:46;101230.09;;;12.55;80.90
72086;BME280;64750;52.134;5.424;2023-03-18T10:10:50;101233.97;;;12.63;81.13
72086;BME280;64750;52.134;5.424;2023-03-18T10:13:21;101233.13;;;12.63;80.81
72086;BME280;64750;52.134;5.424;2023-03-18T10:15:56;101245.19;;;12.67;80.52
72086;BME280;64750;52.134;5.424;2023-03-18T10:18:26;101241.59;;;12.68;80.47
72086;BME280;64750;52.134;5.424;2023-03-18T10:26:40;101242.91;;;12.75;79.75
72086;BME280;64750;52.134;5.424;2023-03-18T10:32:22;101245.16;;;12.82;79.40
72086;BME280;64750;52.134;5.424;2023-03-18T10:35:34;101229.16;;;12.85;79.45
72086;BME280;64750;52.134;5.424;2023-03-18T10:40:41;101230.16;;;12.96;78.54
72086;BME280;64750;52.134;5.424;2023-03-18T10:43:16;101236.06;;;13.00;78.74
72086;BME280;64750;52.134;5.424;2023-03-18T10:45:47;101231.13;;;13.08;79.38
72086;BME280;64750;52.134;5.424;2023-03-18T10:48:17;101225.38;;;13.16;77.98
72086;BME280;64750;52.134;5.424;2023-03-18T10:50:59;101225.38;;;13.16;77.71
72086;BME280;64750;52.134;5.424;2023-03-18T10:53:33;101218.38;;;13.15;77.62
72086;BME280;64750;52.134;5.424;2023-03-18T10:56:09;101220.09;;;13.16;77.76
72086;BME280;64750;52.134;5.424;2023-03-18T10:58:37;101219.91;;;13.19;77.80
72086;BME280;64750;52.134;5.424;2023-03-18T11:01:10;101216.75;;;13.27;77.87
72086;BME280;64750;52.134;5.424;2023-03-18T11:03:44;101214.78;;;13.31;76.90
72086;BME280;64750;52.134;5.424;2023-03-18T11:06:21;101219.72;;;13.35;77.17
72086;BME280;64750;52.134;5.424;2023-03-18T11:08:59;101219.38;;;13.41;76.18
72086;BME280;64750;52.134;5.424;2023-03-18T11:11:32;101216.72;;;13.41;75.63
72086;BME280;64750;52.134;5.424;2023-03-18T11:14:02;101215.66;;;13.44;75.71
72086;BME280;64750;52.134;5.424;2023-03-18T11:16:37;101227.81;;;13.47;75.82
72086;BME280;64750;52.134;5.424;2023-03-18T11:19:28;101206.69;;;13.47;75.93
72086;BME280;64750;52.134;5.424;2023-03-18T11:22:18;101222.31;;;13.50;76.47
72086;BME280;64750;52.134;5.424;2023-03-18T11:25:00;101224.88;;;13.51;76.69
72086;BME280;64750;52.134;5.424;2023-03-18T11:27:33;101217.81;;;13.52;76.36
72086;BME280;64750;52.134;5.424;2023-03-18T11:30:13;101215.28;;;13.50;76.18
72086;BME280;64750;52.134;5.424;2023-03-18T11:33:02;101216.00;;;13.52;75.84
72086;BME280;64750;52.134;5.424;2023-03-18T11:36:12;101219.41;;;13.54;75.88
72086;BME280;64750;52.134;5.424;2023-03-18T11:38:35;101223.63;;;13.57;75.01
72086;BME280;64750;52.134;5.424;2023-03-18T11:41:16;101224.56;;;13.56;75.19
72086;BME280;64750;52.134;5.424;2023-03-18T11:44:07;101227.97;;;13.58;74.80
72086;BME280;64750;52.134;5.424;2023-03-18T11:46:49;101224.47;;;13.57;74.81
72086;BME280;64750;52.134;5.424;2023-03-18T11:49:21;101221.81;;;13.57;74.80
72086;BME280;64750;52.134;5.424;2023-03-18T12:02:48;101211.19;;;13.59;74.96
72086;BME280;64750;52.134;5.424;2023-03-18T12:05:35;101210.97;;;13.62;75.41
72086;BME280;64750;52.134;5.424;2023-03-18T12:08:21;101212.66;;;13.63;75.12
72086;BME280;64750;52.134;5.424;2023-03-18T12:13:37;101206.44;;;13.64;74.35
72086;BME280;64750;52.134;5.424;2023-03-18T12:16:20;101204.63;;;13.65;74.42
72086;BME280;64750;52.134;5.424;2023-03-18T12:25:30;101198.28;;;13.80;73.49
72086;BME280;64750;52.134;5.424;2023-03-18T12:36:12;101212.25;;;13.82;73.78
72086;BME280;64750;52.134;5.424;2023-03-18T12:42:16;101215.84;;;13.81;73.67
72086;BME280;64750;52.134;5.424;2023-03-18T12:45:00;101216.69;;;13.82;73.29
72086;BME280;64750;52.134;5.424;2023-03-18T12:47:55;101208.75;;;13.82;73.63
72086;BME280;64750;52.134;5.424;2023-03-18T12:50:35;101214.16;;;13.80;73.20
72086;BME280;64750;52.134;5.424;2023-03-18T12:53:17;101220.28;;;13.81;73.47
72086;BME280;64750;52.134;5.424;2023-03-18T12:55:50;101217.53;;;13.82;72.73
72086;BME280;64750;52.134;5.424;2023-03-18T12:58:22;101216.69;;;13.82;72.70
72086;BME280;64750;52.134;5.424;2023-03-18T13:00:55;101221.97;;;13.82;72.40
72086;BME280;64750;52.134;5.424;2023-03-18T13:06:23;101217.00;;;13.77;72.49
72086;BME280;64750;52.134;5.424;2023-03-18T13:16:47;101209.09;;;13.77;72.39
72086;BME280;64750;52.134;5.424;2023-03-18T13:19:15;101204.63;;;13.77;72.63
72086;BME280;64750;52.134;5.424;2023-03-18T13:21:47;101214.25;;;13.78;73.16
72086;BME280;64750;52.134;5.424;2023-03-18T13:24:39;101208.97;;;13.78;74.32
72086;BME280;64750;52.134;5.424;2023-03-18T13:27:15;101210.88;;;13.76;75.25
72086;BME280;64750;52.134;5.424;2023-03-18T13:32:34;101217.31;;;13.72;77.29
72086;BME280;64750;52.134;5.424;2023-03-18T13:41:01;101223.22;;;13.63;79.82
72086;BME280;64750;52.134;5.424;2023-03-18T13:43:33;101219.63;;;13.64;80.71
72086;BME280;64750;52.134;5.424;2023-03-18T13:46:00;101218.59;;;13.67;80.83
72086;BME280;64750;52.134;5.424;2023-03-18T13:48:30;101212.13;;;13.71;81.09
72086;BME280;64750;52.134;5.424;2023-03-18T13:51:16;101218.06;;;13.74;81.30
72086;BME280;64750;52.134;5.424;2023-03-18T13:53:44;101225.03;;;13.75;80.85
72086;BME280;64750;52.134;5.424;2023-03-18T13:56:52;101212.78;;;13.74;80.82
72086;BME280;64750;52.134;5.424;2023-03-18T14:02:28;101206.22;;;13.80;80.79
72086;BME280;64750;52.134;5.424;2023-03-18T14:04:56;101206.09;;;13.82;80.36
72086;BME280;64750;52.134;5.424;2023-03-18T14:07:25;101200.81;;;13.82;80.24
72086;BME280;64750;52.134;5.424;2023-03-18T14:10:16;101198.09;;;13.83;79.83
72086;BME280;64750;52.134;5.424;2023-03-18T14:12:45;101192.59;;;13.86;80.38
72086;BME280;64750;52.134;5.424;2023-03-18T14:17:45;101191.75;;;13.86;78.43
72086;BME280;64750;52.134;5.424;2023-03-18T14:22:44;101184.44;;;13.89;77.73
72086;BME280;64750;52.134;5.424;2023-03-18T14:30:46;101189.66;;;13.91;75.70
72086;BME280;64750;52.134;5.424;2023-03-18T14:35:59;101186.03;;;13.92;75.11
72086;BME280;64750;52.134;5.424;2023-03-18T14:40:57;101180.56;;;13.95;75.33
72086;BME280;64750;52.134;5.424;2023-03-18T14:43:34;101173.34;;;13.97;74.79
72086;BME280;64750;52.134;5.424;2023-03-18T14:46:05;101168.69;;;14.01;74.82
72086;BME280;64750;52.134;5.424;2023-03-18T14:48:34;101168.50;;;14.04;74.76